createdAt,value
2023-04-26T00:02:18.618Z,101040.59
2023-04-26T00:04:47.938Z,101045.00
2023-04-26T00:07:15.928Z,101037.41
2023-04-26T00:09:44.718Z,101044.78
2023-04-26T00:12:13.056Z,101033.00
2023-04-26T00:14:40.785Z,101039.53
2023-04-26T00:17:08.551Z,101040.03
2023-04-26T00:19:38.614Z,101035.97
2023-04-26T00:22:06.650Z,101034.03
2023-04-26T00:24:34.516Z,101042.91
2023-04-26T00:27:05.294Z,101039.19
2023-04-26T00:29:33.001Z,101030.03
2023-04-26T00:32:00.960Z,101033.41
2023-04-26T00:34:33.326Z,101033.41
2023-04-26T00:37:02.487Z,101028.16
2023-04-26T00:39:30.508Z,101026.75
2023-04-26T00:41:58.240Z,101028.75
2023-04-26T00:44:26.013Z,101025.19
2023-04-26T00:46:54.697Z,101025.56
2023-04-26T00:49:25.139Z,101022.75
2023-04-26T00:51:53.988Z,101016.75
2023-04-26T00:54:23.166Z,101012.66
2023-04-26T00:56:53.320Z,101006.25
2023-04-26T00:59:21.712Z,101019.88
2023-04-26T01:01:49.569Z,101013.78
2023-04-26T01:04:17.621Z,101021.38
2023-04-26T01:06:46.456Z,101025.16
2023-04-26T01:09:15.875Z,101030.31
2023-04-26T01:11:46.266Z,101026.16
2023-04-26T01:14:15.640Z,101028.78
2023-04-26T01:16:47.567Z,101034.97
2023-04-26T01:19:16.553Z,101011.50
2023-04-26T01:21:46.485Z,101030.75
2023-04-26T01:24:16.638Z,101031.59
2023-04-26T01:26:47.065Z,101032.63
2023-04-26T01:29:16.998Z,101032.03
2023-04-26T01:31:45.554Z,101029.31
2023-04-26T01:34:13.426Z,101038.97
2023-04-26T01:36:41.632Z,101036.81
2023-04-26T01:39:09.435Z,101038.78
2023-04-26T01:41:38.574Z,101041.41
2023-04-26T01:44:06.711Z,101031.53
2023-04-26T01:46:34.556Z,101027.22
2023-04-26T01:49:02.388Z,101029.84
2023-04-26T01:51:31.328Z,101031.34
2023-04-26T01:53:59.945Z,101030.91
2023-04-26T01:56:27.749Z,101031.34
2023-04-26T01:58:57.401Z,101026.16
2023-04-26T02:01:25.515Z,101022.91
2023-04-26T02:03:53.299Z,101035.28
2023-04-26T02:06:21.330Z,101030.03
2023-04-26T02:08:49.370Z,101029.50
2023-04-26T02:11:17.324Z,101028.03
2023-04-26T02:13:45.040Z,101032.69
2023-04-26T02:16:16.118Z,101031.84
2023-04-26T02:18:44.386Z,101032.03
2023-04-26T02:21:13.318Z,101038.59
2023-04-26T02:23:41.094Z,101034.94
2023-04-26T02:26:11.646Z,101040.00
2023-04-26T02:28:39.740Z,101004.50
2023-04-26T02:31:07.720Z,101035.31
2023-04-26T02:33:36.940Z,101040.41
2023-04-26T02:36:05.995Z,101032.94
2023-04-26T02:38:35.063Z,101024.97
2023-04-26T02:41:05.361Z,101023.56
2023-04-26T02:43:34.412Z,101020.31
2023-04-26T02:46:02.417Z,101018.78
2023-04-26T02:48:31.822Z,101010.56
2023-04-26T02:51:01.013Z,100994.16
2023-04-26T02:53:28.857Z,101019.13
2023-04-26T02:55:56.784Z,101027.75
2023-04-26T02:58:24.587Z,101013.59
2023-04-26T03:00:54.564Z,101025.97
2023-04-26T03:03:23.117Z,101017.66
2023-04-26T03:05:51.572Z,101017.84
2023-04-26T03:08:20.886Z,101012.97
2023-04-26T03:10:48.846Z,101020.00
2023-04-26T03:13:16.554Z,101015.50
2023-04-26T03:15:45.863Z,101024.31
2023-04-26T03:18:13.689Z,101017.59
2023-04-26T03:20:41.958Z,101021.78
2023-04-26T03:23:10.249Z,101017.00
2023-04-26T03:25:39.601Z,101014.00
2023-04-26T03:28:07.381Z,101016.84
2023-04-26T03:30:35.463Z,101004.34
2023-04-26T03:33:03.614Z,101004.47
2023-04-26T03:35:31.618Z,101005.41
2023-04-26T03:38:00.852Z,100999.41
2023-04-26T03:40:28.576Z,100998.84
2023-04-26T03:42:58.036Z,100996.41
2023-04-26T03:45:26.806Z,101005.75
2023-04-26T03:47:54.635Z,100999.19
2023-04-26T03:50:22.608Z,101006.69
2023-04-26T03:52:50.919Z,101013.66
2023-04-26T03:55:18.757Z,101006.03
2023-04-26T03:57:47.419Z,101013.06
2023-04-26T04:00:17.500Z,101006.72
2023-04-26T04:02:45.651Z,101000.34
2023-04-26T04:05:22.079Z,101013.91
2023-04-26T04:07:49.959Z,101005.28
2023-04-26T04:10:17.764Z,101008.94
2023-04-26T04:12:46.597Z,101015.97
2023-04-26T04:15:14.981Z,101012.22
2023-04-26T04:17:48.925Z,101015.75
2023-04-26T04:20:16.851Z,101011.00
2023-04-26T04:22:44.735Z,101014.00
2023-04-26T04:25:13.865Z,101013.06
2023-04-26T04:27:43.809Z,101015.16
2023-04-26T04:30:12.883Z,101011.84
2023-04-26T04:32:44.427Z,101020.00
2023-04-26T04:35:14.462Z,101029.56
2023-04-26T04:37:43.861Z,101033.88
2023-04-26T04:40:13.342Z,101030.66
2023-04-26T04:42:44.546Z,101031.03
2023-04-26T04:45:12.667Z,101031.38
2023-04-26T04:47:40.937Z,101028.44
2023-04-26T04:50:09.849Z,101024.91
2023-04-26T04:52:39.485Z,101041.38
2023-04-26T04:55:07.922Z,101041.00
2023-04-26T04:57:41.413Z,101038.09
2023-04-26T05:00:12.854Z,101043.06
2023-04-26T05:02:47.785Z,101039.31
2023-04-26T05:05:17.012Z,101045.78
2023-04-26T05:07:46.442Z,101044.94
2023-04-26T05:10:15.929Z,101056.84
2023-04-26T05:12:43.711Z,101056.00
2023-04-26T05:15:11.924Z,101054.50
2023-04-26T05:17:40.742Z,101064.53
2023-04-26T05:20:17.415Z,101066.31
2023-04-26T05:22:47.718Z,101056.19
2023-04-26T05:25:17.132Z,101061.72
2023-04-26T05:27:47.440Z,101069.31
2023-04-26T05:30:32.335Z,101066.22
2023-04-26T05:33:18.593Z,101071.19
2023-04-26T05:36:21.224Z,101068.25
2023-04-26T05:38:49.189Z,101073.16
2023-04-26T05:41:17.049Z,101074.00
2023-04-26T05:43:44.992Z,101074.75
2023-04-26T05:46:13.067Z,101073.53
2023-04-26T05:48:41.698Z,101075.66
2023-04-26T05:51:09.466Z,101077.25
2023-04-26T05:53:38.779Z,101079.97
2023-04-26T05:56:07.736Z,101085.81
2023-04-26T05:58:35.986Z,101088.59
2023-04-26T06:01:04.613Z,101098.25
2023-04-26T06:03:32.816Z,101094.59
2023-04-26T06:06:01.426Z,101096.81
2023-04-26T06:08:29.396Z,101094.19
2023-04-26T06:10:58.497Z,101095.16
2023-04-26T06:13:28.328Z,101102.91
2023-04-26T06:15:56.361Z,101100.41
2023-04-26T06:18:24.088Z,101095.59
2023-04-26T06:20:52.365Z,101102.25
2023-04-26T06:23:20.412Z,101106.75
2023-04-26T06:25:48.262Z,101108.97
2023-04-26T06:28:17.668Z,101106.81
2023-04-26T06:30:45.913Z,101110.94
2023-04-26T06:33:13.780Z,101105.19
2023-04-26T06:35:41.921Z,101118.22
2023-04-26T06:38:12.627Z,101113.47
2023-04-26T06:40:40.363Z,101120.41
2023-04-26T06:43:09.150Z,101117.78
2023-04-26T06:45:38.187Z,101116.44
2023-04-26T06:48:07.275Z,101114.25
2023-04-26T06:50:38.989Z,101117.19
2023-04-26T06:53:07.049Z,101090.56
2023-04-26T06:55:35.153Z,101111.03
2023-04-26T06:58:02.954Z,101111.56
2023-04-26T07:00:30.900Z,101109.78
2023-04-26T07:03:00.094Z,101108.44
2023-04-26T07:05:27.956Z,101112.25
2023-04-26T07:07:55.905Z,101109.19
2023-04-26T07:10:23.915Z,101088.56
2023-04-26T07:12:51.717Z,101116.59
2023-04-26T07:15:19.476Z,101114.59
2023-04-26T07:17:47.225Z,101127.22
2023-04-26T07:20:19.822Z,101111.66
2023-04-26T07:22:47.652Z,101114.72
2023-04-26T07:25:15.901Z,101116.28
2023-04-26T07:27:43.774Z,101113.34
2023-04-26T07:30:12.193Z,101115.38
2023-04-26T07:32:39.943Z,101113.97
2023-04-26T07:35:10.474Z,101112.84
2023-04-26T07:37:39.597Z,101112.63
2023-04-26T07:40:10.385Z,101110.22
2023-04-26T07:42:38.197Z,101115.69
2023-04-26T07:45:06.872Z,101110.31
2023-04-26T07:47:34.640Z,101101.06
2023-04-26T07:50:02.492Z,101099.38
2023-04-26T07:52:30.302Z,101121.69
2023-04-26T07:54:59.408Z,101113.16
2023-04-26T07:57:27.101Z,101117.03
2023-04-26T07:59:54.864Z,101106.31
2023-04-26T08:02:32.937Z,101123.78
2023-04-26T08:05:10.761Z,101115.00
2023-04-26T08:07:38.645Z,101111.75
2023-04-26T08:10:08.902Z,101110.28
2023-04-26T08:12:38.093Z,101099.41
2023-04-26T08:15:06.957Z,101109.00
2023-04-26T08:17:34.777Z,101114.69
2023-04-26T08:20:04.929Z,101107.59
2023-04-26T08:22:32.700Z,101115.94
2023-04-26T08:25:00.416Z,101111.50
2023-04-26T08:27:29.516Z,101085.59
2023-04-26T08:29:57.202Z,101112.09
2023-04-26T08:32:24.966Z,101110.03
2023-04-26T08:34:52.911Z,101125.81
2023-04-26T08:37:20.852Z,101117.59
2023-04-26T08:39:48.623Z,101115.38
2023-04-26T08:42:18.586Z,101118.22
2023-04-26T08:44:47.709Z,101125.56
2023-04-26T08:47:19.034Z,101119.88
2023-04-26T08:49:50.267Z,101117.13
2023-04-26T08:52:22.872Z,101111.72
2023-04-26T08:54:52.132Z,101117.91
2023-04-26T08:57:21.066Z,101100.09
2023-04-26T08:59:51.281Z,101109.03
2023-04-26T09:02:21.368Z,101114.06
2023-04-26T09:04:50.027Z,101125.03
2023-04-26T09:07:22.373Z,101124.19
2023-04-26T09:09:51.508Z,101125.28
2023-04-26T09:12:21.229Z,101105.75
2023-04-26T09:14:50.487Z,101124.72
2023-04-26T09:17:28.593Z,101110.38
2023-04-26T09:19:56.672Z,101117.69
2023-04-26T09:22:32.301Z,101110.41
2023-04-26T09:25:00.938Z,101123.72
2023-04-26T09:27:34.725Z,101120.75
2023-04-26T09:30:08.109Z,101117.16
2023-04-26T09:32:46.692Z,101111.59
2023-04-26T09:35:31.559Z,101109.56
2023-04-26T09:38:08.605Z,101096.88
2023-04-26T09:40:41.030Z,101113.34
2023-04-26T09:43:09.784Z,101106.03
2023-04-26T09:45:47.431Z,101096.78
2023-04-26T09:48:17.573Z,101089.06
2023-04-26T09:50:46.848Z,101103.00
2023-04-26T09:53:27.532Z,101100.84
2023-04-26T09:55:55.505Z,101099.63
2023-04-26T09:58:23.966Z,101095.59
2023-04-26T10:00:54.456Z,101096.31
2023-04-26T10:03:24.214Z,101098.00
2023-04-26T10:05:52.604Z,101092.22
2023-04-26T10:08:20.453Z,101070.34
2023-04-26T10:10:49.005Z,101092.94
2023-04-26T10:13:17.364Z,101095.34
2023-04-26T10:15:45.200Z,101096.81
2023-04-26T10:18:14.328Z,101093.09
2023-04-26T10:20:45.704Z,101099.22
2023-04-26T10:23:26.520Z,101089.13
2023-04-26T10:25:55.788Z,101092.84
2023-04-26T10:28:57.181Z,101085.28
2023-04-26T10:32:06.388Z,101089.59
2023-04-26T10:34:37.046Z,101044.41
2023-04-26T10:37:09.376Z,101064.84
2023-04-26T10:39:37.455Z,101082.00
2023-04-26T10:42:26.564Z,101082.41
2023-04-26T10:44:55.996Z,101081.66
2023-04-26T10:47:27.102Z,101077.81
2023-04-26T10:50:05.529Z,101079.03
2023-04-26T10:52:34.488Z,101066.50
2023-04-26T10:55:02.658Z,101087.16
2023-04-26T10:57:50.883Z,101097.94
2023-04-26T11:00:31.934Z,101095.78
2023-04-26T11:03:05.009Z,101094.69
2023-04-26T11:05:56.365Z,101091.66
2023-04-26T11:08:28.550Z,101089.72
2023-04-26T11:11:11.801Z,101083.19
2023-04-26T11:13:41.345Z,101088.13
2023-04-26T11:16:11.371Z,101076.69
2023-04-26T11:18:40.800Z,101075.88
2023-04-26T11:21:10.828Z,101072.81
2023-04-26T11:23:38.691Z,101068.69
2023-04-26T11:26:08.342Z,101065.47
2023-04-26T11:28:37.801Z,101071.03
2023-04-26T11:31:07.391Z,101061.72
2023-04-26T11:33:35.206Z,101061.47
2023-04-26T11:36:03.106Z,101070.97
2023-04-26T11:38:32.203Z,101070.59
2023-04-26T11:41:01.989Z,101060.94
2023-04-26T11:43:36.871Z,101069.88
2023-04-26T11:46:05.805Z,101053.97
2023-04-26T11:48:35.690Z,101055.47
2023-04-26T11:51:05.576Z,101060.28
2023-04-26T11:53:38.733Z,101053.78
2023-04-26T11:56:15.293Z,101047.72
2023-04-26T11:58:45.734Z,101049.19
2023-04-26T12:01:13.580Z,101053.53
2023-04-26T12:03:41.541Z,101041.38
2023-04-26T12:06:09.372Z,101048.03
2023-04-26T12:08:38.601Z,101048.53
2023-04-26T12:11:06.363Z,101050.81
2023-04-26T12:13:34.045Z,101054.16
2023-04-26T12:18:37.674Z,101062.50
2023-04-26T12:21:06.449Z,101062.38
2023-04-26T12:23:41.874Z,101067.69
2023-04-26T12:26:12.251Z,101060.41
2023-04-26T12:28:40.087Z,101054.81
2023-04-26T12:31:08.447Z,101056.16
2023-04-26T12:33:36.737Z,101054.25
2023-04-26T12:36:09.239Z,101062.28
2023-04-26T12:38:37.288Z,101055.03
2023-04-26T12:41:07.225Z,101055.97
2023-04-26T12:43:35.023Z,101062.59
2023-04-26T12:46:02.863Z,101062.44
2023-04-26T12:48:30.749Z,101061.59
2023-04-26T12:50:58.592Z,101057.81
2023-04-26T12:53:26.461Z,101047.09
2023-04-26T12:55:54.387Z,101056.81
2023-04-26T12:58:23.448Z,101052.41
2023-04-26T13:00:51.685Z,101054.06
2023-04-26T13:03:19.522Z,101054.59
2023-04-26T13:05:47.380Z,101053.47
2023-04-26T13:08:15.440Z,101051.38
2023-04-26T13:10:43.552Z,101050.69
2023-04-26T13:13:11.252Z,101041.59
2023-04-26T13:15:41.084Z,101056.19
2023-04-26T13:18:08.837Z,101056.56
2023-04-26T13:20:36.985Z,101061.97
2023-04-26T13:23:04.911Z,101063.69
2023-04-26T13:25:32.685Z,101065.97
2023-04-26T13:28:00.511Z,101063.00
2023-04-26T13:30:28.317Z,101060.66
2023-04-26T13:32:59.960Z,101065.00
2023-04-26T13:35:28.298Z,101070.03
2023-04-26T13:37:56.348Z,101067.34
2023-04-26T13:40:24.108Z,101072.19
2023-04-26T13:42:52.039Z,101060.31
2023-04-26T13:45:20.224Z,101054.97
2023-04-26T13:47:48.017Z,101058.69
2023-04-26T13:50:17.629Z,101054.84
2023-04-26T13:52:45.539Z,101048.34
2023-04-26T13:55:14.361Z,101041.97
2023-04-26T13:57:42.441Z,101035.59
2023-04-26T14:00:11.889Z,101050.44
2023-04-26T14:02:42.061Z,101047.34
2023-04-26T14:05:10.553Z,101041.44
2023-04-26T14:07:40.293Z,101037.81
2023-04-26T14:10:09.084Z,101045.41
2023-04-26T14:12:37.301Z,101034.94
2023-04-26T14:15:06.595Z,101038.97
2023-04-26T14:17:34.598Z,101022.69
2023-04-26T14:20:02.501Z,101029.13
2023-04-26T14:22:30.578Z,101024.97
2023-04-26T14:24:59.751Z,101023.59
2023-04-26T14:27:27.671Z,101026.59
2023-04-26T14:29:55.851Z,101030.78
2023-04-26T14:32:24.505Z,101027.31
2023-04-26T14:34:52.240Z,101030.03
2023-04-26T14:37:22.811Z,101025.47
2023-04-26T14:39:51.667Z,101026.78
2023-04-26T14:42:21.118Z,101021.84
2023-04-26T14:44:48.863Z,101025.34
2023-04-26T14:47:16.734Z,101021.16
2023-04-26T14:49:44.607Z,101023.97
2023-04-26T14:52:12.369Z,101028.53
2023-04-26T14:54:40.916Z,101018.88
2023-04-26T14:57:09.098Z,101019.78
2023-04-26T14:59:38.446Z,101010.72
2023-04-26T15:02:06.292Z,101005.84
2023-04-26T15:04:34.344Z,101006.84
2023-04-26T15:07:02.691Z,101003.69
2023-04-26T15:09:30.927Z,101004.50
2023-04-26T15:11:58.679Z,101000.69
2023-04-26T15:14:26.923Z,100999.34
2023-04-26T15:16:56.184Z,100996.00
2023-04-26T15:19:24.635Z,100997.38
2023-04-26T15:21:52.428Z,101001.75
2023-04-26T15:24:20.453Z,100992.19
2023-04-26T15:26:48.224Z,100992.19
2023-04-26T15:29:18.851Z,101000.09
2023-04-26T15:31:46.709Z,100990.91
2023-04-26T15:34:16.520Z,100985.09
2023-04-26T15:36:44.238Z,100988.38
2023-04-26T15:39:12.115Z,100990.34
2023-04-26T15:41:39.883Z,100989.56
2023-04-26T15:44:07.694Z,100974.66
2023-04-26T15:46:37.993Z,100981.09
2023-04-26T15:49:06.026Z,100991.41
2023-04-26T15:51:35.296Z,100986.78
2023-04-26T15:54:03.091Z,100987.50
2023-04-26T15:56:30.837Z,100984.94
2023-04-26T15:58:58.546Z,100961.59
2023-04-26T16:01:26.501Z,100993.69
2023-04-26T16:03:54.419Z,100992.19
2023-04-26T16:06:22.464Z,100989.13
2023-04-26T16:08:51.541Z,100998.34
2023-04-26T16:11:19.282Z,100995.91
2023-04-26T16:13:51.711Z,100998.25
2023-04-26T16:16:19.832Z,100988.06
2023-04-26T16:18:47.777Z,100986.47
2023-04-26T16:21:16.148Z,100985.09
2023-04-26T16:23:43.786Z,100968.97
2023-04-26T16:26:13.010Z,100983.88
2023-04-26T16:28:40.799Z,100981.59
2023-04-26T16:31:08.564Z,100982.53
2023-04-26T16:33:36.330Z,100977.22
2023-04-26T16:36:04.420Z,100966.16
2023-04-26T16:38:32.155Z,100976.13
2023-04-26T16:41:01.690Z,100975.94
2023-04-26T16:43:32.628Z,100964.09
2023-04-26T16:46:02.145Z,100963.47
2023-04-26T16:48:31.754Z,100968.47
2023-04-26T16:50:59.823Z,100971.41
2023-04-26T16:53:27.564Z,100974.44
2023-04-26T16:55:55.535Z,100964.88
2023-04-26T16:58:24.024Z,100969.91
2023-04-26T17:00:53.602Z,100969.75
2023-04-26T17:03:22.010Z,100950.03
2023-04-26T17:05:50.164Z,100964.47
2023-04-26T17:08:19.248Z,100972.50
2023-04-26T17:10:47.849Z,100976.97
2023-04-26T17:13:15.947Z,100973.22
2023-04-26T17:15:44.217Z,100954.44
2023-04-26T17:18:13.440Z,100976.81
2023-04-26T17:20:41.906Z,100970.38
2023-04-26T17:23:09.961Z,100977.25
2023-04-26T17:25:37.707Z,100974.97
2023-04-26T17:28:05.572Z,100973.31
2023-04-26T17:30:33.392Z,100984.75
2023-04-26T17:33:01.296Z,100975.00
2023-04-26T17:35:30.777Z,100969.97
2023-04-26T17:37:58.599Z,100973.88
2023-04-26T17:40:26.520Z,100971.91
2023-04-26T17:42:54.309Z,100980.84
2023-04-26T17:45:22.236Z,100980.53
2023-04-26T17:47:50.025Z,100974.13
2023-04-26T17:50:20.882Z,100976.22
2023-04-26T17:52:50.174Z,100970.84
2023-04-26T17:55:18.209Z,100975.75
2023-04-26T17:57:46.681Z,100989.16
2023-04-26T18:00:15.707Z,100988.56
2023-04-26T18:02:43.903Z,100991.34
2023-04-26T18:05:13.202Z,100993.59
2023-04-26T18:07:40.872Z,100992.44
2023-04-26T18:10:10.927Z,100982.09
2023-04-26T18:12:38.783Z,100993.13
2023-04-26T18:15:07.815Z,100992.41
2023-04-26T18:17:36.248Z,100991.97
2023-04-26T18:20:04.717Z,100974.50
2023-04-26T18:22:32.521Z,100989.88
2023-04-26T18:25:00.393Z,100990.41
2023-04-26T18:27:29.562Z,100999.31
2023-04-26T18:29:57.283Z,101006.56
2023-04-26T18:32:25.174Z,101003.19
2023-04-26T18:34:53.013Z,101001.78
2023-04-26T18:37:20.844Z,101001.91
2023-04-26T18:39:49.341Z,101005.19
2023-04-26T18:42:17.210Z,101004.34
2023-04-26T18:44:46.349Z,101007.97
2023-04-26T18:47:17.367Z,101006.16
2023-04-26T18:49:45.198Z,101009.91
2023-04-26T18:52:13.005Z,101008.63
2023-04-26T18:54:44.164Z,101011.53
2023-04-26T18:57:12.047Z,101016.72
2023-04-26T18:59:39.850Z,101011.09
2023-04-26T19:02:09.053Z,101018.91
2023-04-26T19:04:37.069Z,101013.31
2023-04-26T19:07:04.967Z,101025.56
2023-04-26T19:09:42.823Z,101024.72
2023-04-26T19:12:18.645Z,101025.09
2023-04-26T19:14:46.429Z,101033.06
2023-04-26T19:17:15.562Z,101035.22
2023-04-26T19:19:43.336Z,101039.56
2023-04-26T19:22:11.139Z,101039.81
2023-04-26T19:24:38.859Z,101042.75
2023-04-26T19:27:06.614Z,101044.69
2023-04-26T19:29:34.405Z,101046.34
2023-04-26T19:32:04.501Z,101039.38
2023-04-26T19:34:34.854Z,101037.81
2023-04-26T19:37:03.497Z,101036.97
2023-04-26T19:39:31.320Z,101038.91
2023-04-26T19:42:01.291Z,101050.47
2023-04-26T19:44:29.052Z,101043.50
2023-04-26T19:46:56.909Z,101054.06
2023-04-26T19:49:25.754Z,101054.31
2023-04-26T19:51:55.849Z,101055.69
2023-04-26T19:54:24.541Z,101051.97
2023-04-26T19:56:52.273Z,101053.88
2023-04-26T19:59:20.622Z,101032.06
2023-04-26T20:01:48.371Z,101063.03
2023-04-26T20:04:16.460Z,101064.00
2023-04-26T20:06:44.485Z,101053.00
2023-04-26T20:09:13.710Z,101052.50
2023-04-26T20:11:41.484Z,101067.84
2023-04-26T20:14:09.231Z,101044.84
2023-04-26T20:16:37.044Z,101077.28
2023-04-26T20:19:05.110Z,101072.47
2023-04-26T20:21:33.217Z,101071.63
2023-04-26T20:24:00.967Z,101076.69
2023-04-26T20:26:30.133Z,101080.16
2023-04-26T20:28:57.912Z,101078.72
2023-04-26T20:31:25.808Z,101079.19
2023-04-26T20:33:53.558Z,101075.84
2023-04-26T20:36:21.394Z,101077.53
2023-04-26T20:38:49.130Z,101074.41
2023-04-26T20:41:16.903Z,101078.84
2023-04-26T20:43:46.083Z,101077.28
2023-04-26T20:46:13.993Z,101069.34
2023-04-26T20:48:42.009Z,101072.16
2023-04-26T20:51:09.696Z,101074.91
2023-04-26T20:53:37.425Z,101074.06
2023-04-26T20:56:05.605Z,101075.16
2023-04-26T20:58:33.481Z,101073.72
2023-04-26T21:01:04.249Z,101064.22
2023-04-26T21:03:34.505Z,101056.53
2023-04-26T21:06:02.622Z,101062.66
2023-04-26T21:08:30.435Z,101063.91
2023-04-26T21:10:58.157Z,101055.97
2023-04-26T21:13:26.026Z,101064.97
2023-04-26T21:15:53.819Z,101057.91
2023-04-26T21:18:22.954Z,101067.13
2023-04-26T21:20:50.732Z,101066.28
2023-04-26T21:23:18.513Z,101070.41
2023-04-26T21:25:47.859Z,101066.81
2023-04-26T21:28:15.777Z,101065.34
2023-04-26T21:30:43.515Z,101070.88
2023-04-26T21:33:12.414Z,101072.81
2023-04-26T21:35:41.599Z,101069.19
2023-04-26T21:38:09.430Z,101073.66
2023-04-26T21:40:37.145Z,101076.41
2023-04-26T21:43:05.704Z,101079.31
2023-04-26T21:45:33.769Z,101055.38
2023-04-26T21:48:01.571Z,101080.47
2023-04-26T21:50:29.315Z,101077.72
2023-04-26T21:52:58.516Z,101073.50
2023-04-26T21:55:26.831Z,101068.22
2023-04-26T21:57:54.651Z,101071.84
2023-04-26T22:00:22.469Z,101071.84
2023-04-26T22:02:51.431Z,101074.59
2023-04-26T22:05:19.329Z,101071.47
2023-04-26T22:07:47.172Z,101066.28
2023-04-26T22:10:16.461Z,101072.53
2023-04-26T22:12:44.278Z,101080.47
2023-04-26T22:15:12.375Z,101042.03
2023-04-26T22:17:40.143Z,101088.28
2023-04-26T22:20:09.087Z,101083.13
2023-04-26T22:22:36.910Z,101075.31
2023-04-26T22:25:05.079Z,101084.06
2023-04-26T22:27:34.279Z,101074.47
2023-04-26T22:30:12.446Z,101070.03
2023-04-26T22:32:52.571Z,101079.50
2023-04-26T22:35:20.903Z,101061.97
2023-04-26T22:37:48.874Z,101083.84
2023-04-26T22:40:17.573Z,101084.06
2023-04-26T22:42:46.856Z,101081.53
2023-04-26T22:45:14.622Z,101084.56
2023-04-26T22:47:42.578Z,101085.41
2023-04-26T22:50:11.554Z,101080.09
2023-04-26T22:52:39.344Z,101086.72
2023-04-26T22:55:08.145Z,101092.50
2023-04-26T22:57:36.606Z,101095.38
2023-04-26T23:00:09.526Z,101077.09
2023-04-26T23:02:37.494Z,101061.94
2023-04-26T23:05:08.814Z,101097.50
2023-04-26T23:07:36.704Z,101095.25
2023-04-26T23:10:05.068Z,101095.59
2023-04-26T23:12:33.384Z,101093.28
2023-04-26T23:15:01.451Z,101091.50
2023-04-26T23:17:32.081Z,101078.16
2023-04-26T23:20:00.959Z,101090.03
2023-04-26T23:22:28.874Z,101095.56
2023-04-26T23:24:56.677Z,101103.94
2023-04-26T23:27:24.849Z,101097.59
2023-04-26T23:29:52.643Z,101096.97
2023-04-26T23:32:20.374Z,101091.63
2023-04-26T23:34:50.618Z,101093.91
2023-04-26T23:37:18.487Z,101103.41
2023-04-26T23:39:46.266Z,101105.31
2023-04-26T23:42:14.021Z,101101.94
2023-04-26T23:44:42.005Z,101102.16
2023-04-26T23:47:10.352Z,101100.47
2023-04-26T23:49:38.082Z,101100.47
2023-04-26T23:52:07.326Z,101099.47
2023-04-26T23:54:35.136Z,101093.69
2023-04-26T23:57:04.124Z,101101.34
2023-04-26T23:59:32.225Z,101106.09
